createdAt,value
2023-02-06T00:01:04.600Z,87.75
2023-02-06T00:03:35.026Z,87.47
2023-02-06T00:06:05.787Z,87.70
2023-02-06T00:08:36.213Z,87.62
2023-02-06T00:11:08.301Z,87.57
2023-02-06T00:13:39.306Z,87.56
2023-02-06T00:16:18.470Z,87.49
2023-02-06T00:18:49.181Z,87.10
2023-02-06T00:21:21.895Z,87.29
2023-02-06T00:23:53.950Z,87.23
2023-02-06T00:26:24.673Z,87.19
2023-02-06T00:28:55.193Z,87.07
2023-02-06T00:31:25.637Z,87.34
2023-02-06T00:33:56.311Z,87.32
2023-02-06T00:36:26.764Z,87.18
2023-02-06T00:38:57.198Z,87.34
2023-02-06T00:41:27.613Z,87.77
2023-02-06T00:43:58.454Z,87.87
2023-02-06T00:46:28.956Z,88.12
2023-02-06T00:48:59.644Z,88.12
2023-02-06T00:51:30.385Z,88.32
2023-02-06T00:54:00.988Z,88.41
2023-02-06T00:56:31.340Z,88.43
2023-02-06T00:59:02.184Z,88.66
2023-02-06T01:01:32.586Z,88.55
2023-02-06T01:04:03.353Z,88.66
2023-02-06T01:06:33.730Z,88.39
2023-02-06T01:09:05.094Z,88.49
2023-02-06T01:11:36.283Z,88.64
2023-02-06T01:14:07.072Z,88.74
2023-02-06T01:16:37.463Z,88.75
2023-02-06T01:19:07.735Z,88.91
2023-02-06T01:21:38.867Z,89.19
2023-02-06T01:24:09.771Z,89.21
2023-02-06T01:26:40.445Z,89.54
2023-02-06T01:29:10.800Z,89.53
2023-02-06T01:31:41.202Z,89.85
2023-02-06T01:34:12.356Z,89.91
2023-02-06T01:36:43.055Z,90.08
2023-02-06T01:39:13.685Z,89.99
2023-02-06T01:41:44.644Z,90.16
2023-02-06T01:44:18.304Z,89.84
2023-02-06T01:46:51.920Z,89.82
2023-02-06T01:49:26.792Z,90.27
2023-02-06T01:52:04.106Z,90.44
2023-02-06T01:54:34.953Z,90.66
2023-02-06T01:57:10.573Z,90.50
2023-02-06T01:59:43.230Z,90.78
2023-02-06T02:02:14.847Z,90.76
2023-02-06T02:04:46.112Z,90.70
2023-02-06T02:07:21.553Z,90.95
2023-02-06T02:09:51.917Z,90.92
2023-02-06T02:12:22.640Z,91.04
2023-02-06T02:14:55.041Z,90.84
2023-02-06T02:17:38.136Z,90.78
2023-02-06T02:20:44.785Z,90.57
2023-02-06T02:23:27.408Z,91.03
2023-02-06T02:26:21.913Z,91.26
2023-02-06T02:29:29.104Z,91.23
2023-02-06T02:32:31.984Z,91.17
2023-02-06T02:35:12.351Z,91.03
2023-02-06T02:38:02.946Z,91.11
2023-02-06T02:40:45.634Z,91.14
2023-02-06T02:43:25.273Z,91.34
2023-02-06T02:46:01.497Z,91.39
2023-02-06T02:48:36.410Z,91.41
2023-02-06T02:51:08.856Z,91.35
2023-02-06T02:53:39.247Z,91.40
2023-02-06T02:56:18.943Z,91.50
2023-02-06T02:58:54.287Z,91.39
2023-02-06T03:01:32.092Z,91.65
2023-02-06T03:04:10.098Z,91.60
2023-02-06T03:06:47.478Z,91.56
2023-02-06T03:09:30.600Z,91.80
2023-02-06T03:12:10.307Z,91.70
2023-02-06T03:14:46.809Z,91.28
2023-02-06T03:17:26.437Z,91.22
2023-02-06T03:20:00.062Z,91.26
2023-02-06T03:22:31.905Z,91.24
2023-02-06T03:25:03.596Z,91.41
2023-02-06T03:27:36.757Z,90.91
2023-02-06T03:30:09.621Z,90.80
2023-02-06T03:32:47.309Z,90.96
2023-02-06T03:35:21.981Z,90.99
2023-02-06T03:37:52.897Z,90.95
2023-02-06T03:40:24.251Z,90.78
2023-02-06T03:42:57.540Z,90.46
2023-02-06T03:45:32.844Z,90.47
2023-02-06T03:48:07.711Z,90.44
2023-02-06T03:50:41.316Z,90.66
2023-02-06T03:53:15.569Z,90.30
2023-02-06T03:55:48.351Z,90.29
2023-02-06T03:58:18.844Z,90.27
2023-02-06T04:00:49.878Z,90.46
2023-02-06T04:03:21.494Z,90.36
2023-02-06T04:05:52.206Z,90.39
2023-02-06T04:08:22.483Z,90.58
2023-02-06T04:10:52.806Z,90.24
2023-02-06T04:13:23.629Z,90.49
2023-02-06T04:15:56.176Z,90.19
2023-02-06T04:18:26.494Z,90.31
2023-02-06T04:20:57.106Z,90.10
2023-02-06T04:23:27.600Z,89.85
2023-02-06T04:25:58.271Z,89.82
2023-02-06T04:28:28.685Z,89.74
2023-02-06T04:30:59.336Z,89.85
2023-02-06T04:33:30.247Z,89.74
2023-02-06T04:36:00.558Z,89.71
2023-02-06T04:38:30.858Z,89.46
2023-02-06T04:41:06.238Z,89.33
2023-02-06T04:43:36.573Z,89.54
2023-02-06T04:46:07.210Z,89.57
2023-02-06T04:48:39.071Z,89.34
2023-02-06T04:51:09.569Z,89.37
2023-02-06T04:53:40.287Z,89.02
2023-02-06T04:56:12.418Z,89.35
2023-02-06T04:58:43.298Z,89.32
2023-02-06T05:01:16.722Z,89.15
2023-02-06T05:03:47.530Z,89.33
2023-02-06T05:06:18.593Z,89.37
2023-02-06T05:08:48.875Z,89.52
2023-02-06T05:11:19.156Z,89.32
2023-02-06T05:13:49.878Z,89.13
2023-02-06T05:16:20.341Z,89.34
2023-02-06T05:18:55.960Z,89.56
2023-02-06T05:21:27.420Z,89.62
2023-02-06T05:23:58.044Z,89.55
2023-02-06T05:26:28.768Z,89.56
2023-02-06T05:28:59.141Z,89.50
2023-02-06T05:31:29.741Z,89.47
2023-02-06T05:34:00.177Z,89.52
2023-02-06T05:36:30.522Z,89.62
2023-02-06T05:39:01.078Z,89.57
2023-02-06T05:41:31.484Z,89.57
2023-02-06T05:44:02.033Z,89.59
2023-02-06T05:46:32.466Z,89.83
2023-02-06T05:49:02.771Z,89.88
2023-02-06T05:51:33.133Z,89.67
2023-02-06T05:54:03.439Z,89.99
2023-02-06T05:56:34.310Z,89.85
2023-02-06T05:59:04.648Z,89.76
2023-02-06T06:01:34.944Z,89.79
2023-02-06T06:04:06.326Z,89.89
2023-02-06T06:06:37.038Z,89.78
2023-02-06T06:09:07.582Z,89.70
2023-02-06T06:11:38.195Z,89.72
2023-02-06T06:14:09.046Z,89.85
2023-02-06T06:16:40.689Z,89.78
2023-02-06T06:19:11.531Z,89.71
2023-02-06T06:21:41.913Z,89.60
2023-02-06T06:24:12.709Z,89.64
2023-02-06T06:26:43.042Z,89.59
2023-02-06T06:29:14.239Z,89.70
2023-02-06T06:31:44.676Z,89.92
2023-02-06T06:34:15.640Z,89.54
2023-02-06T06:36:46.229Z,89.77
2023-02-06T06:39:16.632Z,89.65
2023-02-06T06:41:47.051Z,89.63
2023-02-06T06:44:17.701Z,89.62
2023-02-06T06:46:48.343Z,89.89
2023-02-06T06:49:19.498Z,89.97
2023-02-06T06:51:50.276Z,89.77
2023-02-06T06:54:21.535Z,89.99
2023-02-06T06:56:52.143Z,89.75
2023-02-06T06:59:22.597Z,89.51
2023-02-06T07:01:52.920Z,89.60
2023-02-06T07:04:23.277Z,89.43
2023-02-06T07:06:53.542Z,89.86
2023-02-06T07:09:24.448Z,89.83
2023-02-06T07:11:55.204Z,89.58
2023-02-06T07:14:25.926Z,89.59
2023-02-06T07:16:56.584Z,89.48
2023-02-06T07:19:26.911Z,89.39
2023-02-06T07:21:57.267Z,89.31
2023-02-06T07:24:27.537Z,89.21
2023-02-06T07:26:58.717Z,89.05
2023-02-06T07:29:29.509Z,89.06
2023-02-06T07:32:00.125Z,89.07
2023-02-06T07:34:31.213Z,89.14
2023-02-06T07:37:01.830Z,89.38
2023-02-06T07:39:32.153Z,89.52
2023-02-06T07:42:02.728Z,89.50
2023-02-06T07:44:32.999Z,89.51
2023-02-06T07:47:03.249Z,89.56
2023-02-06T07:49:33.582Z,89.17
2023-02-06T07:52:04.537Z,89.19
2023-02-06T07:54:35.063Z,89.51
2023-02-06T07:57:05.391Z,89.50
2023-02-06T07:59:35.698Z,89.15
2023-02-06T08:02:06.599Z,89.17
2023-02-06T08:04:38.066Z,89.33
2023-02-06T08:07:09.914Z,89.36
2023-02-06T08:09:40.278Z,89.52
2023-02-06T08:12:12.059Z,89.36
2023-02-06T08:14:45.808Z,89.56
2023-02-06T08:17:17.517Z,89.18
2023-02-06T08:19:49.286Z,89.25
2023-02-06T08:22:19.594Z,89.10
2023-02-06T08:24:50.684Z,89.37
2023-02-06T08:27:21.017Z,88.99
2023-02-06T08:29:51.737Z,89.18
2023-02-06T08:32:22.388Z,89.34
2023-02-06T08:34:53.038Z,89.22
2023-02-06T08:37:24.356Z,89.04
2023-02-06T08:39:54.674Z,88.93
2023-02-06T08:42:25.131Z,88.74
2023-02-06T08:44:55.736Z,88.58
2023-02-06T08:47:26.568Z,88.85
2023-02-06T08:49:57.186Z,88.77
2023-02-06T08:52:27.707Z,88.69
2023-02-06T08:54:58.100Z,88.64
2023-02-06T08:57:28.627Z,88.93
2023-02-06T08:59:59.065Z,88.91
2023-02-06T09:02:29.409Z,88.62
2023-02-06T09:04:59.738Z,88.81
2023-02-06T09:07:31.641Z,88.80
2023-02-06T09:10:01.921Z,88.52
2023-02-06T09:12:32.480Z,88.98
2023-02-06T09:15:02.812Z,89.02
2023-02-06T09:17:33.529Z,88.77
2023-02-06T09:20:05.309Z,88.33
2023-02-06T09:22:35.927Z,88.46
2023-02-06T09:25:07.596Z,88.40
2023-02-06T09:27:38.231Z,88.28
2023-02-06T09:30:10.759Z,88.49
2023-02-06T09:32:43.049Z,88.32
2023-02-06T09:35:13.344Z,88.23
2023-02-06T09:37:43.629Z,88.24
2023-02-06T09:40:18.989Z,87.80
2023-02-06T09:42:49.662Z,88.12
2023-02-06T09:45:23.812Z,88.19
2023-02-06T09:47:58.066Z,88.32
2023-02-06T09:50:34.417Z,88.18
2023-02-06T09:53:21.466Z,87.82
2023-02-06T09:55:56.461Z,87.84
2023-02-06T09:58:34.626Z,87.79
2023-02-06T10:01:13.973Z,87.49
2023-02-06T10:04:10.124Z,87.41
2023-02-06T10:06:49.856Z,87.39
2023-02-06T10:09:22.519Z,87.29
2023-02-06T10:11:59.418Z,87.06
2023-02-06T10:14:40.365Z,87.25
2023-02-06T10:17:19.091Z,86.88
2023-02-06T10:19:55.051Z,87.10
2023-02-06T10:22:32.823Z,87.06
2023-02-06T10:25:20.566Z,86.95
2023-02-06T10:27:55.583Z,86.72
2023-02-06T10:30:40.258Z,86.74
2023-02-06T10:33:25.316Z,86.81
2023-02-06T10:36:03.966Z,86.85
2023-02-06T10:38:43.105Z,86.67
2023-02-06T10:41:24.697Z,86.43
2023-02-06T10:44:01.825Z,86.35
2023-02-06T10:46:44.872Z,86.24
2023-02-06T10:49:22.645Z,85.83
2023-02-06T10:51:58.436Z,86.03
2023-02-06T10:54:32.648Z,85.95
2023-02-06T10:57:04.021Z,85.36
2023-02-06T10:59:38.739Z,85.12
2023-02-06T11:02:21.259Z,84.89
2023-02-06T11:04:56.230Z,84.44
2023-02-06T11:07:30.996Z,84.37
2023-02-06T11:10:01.842Z,84.70
2023-02-06T11:12:36.291Z,84.38
2023-02-06T11:15:22.969Z,84.12
2023-02-06T11:17:54.505Z,84.21
2023-02-06T11:20:28.039Z,84.33
2023-02-06T11:23:14.420Z,83.93
2023-02-06T11:25:46.035Z,83.88
2023-02-06T11:28:20.069Z,83.71
2023-02-06T11:31:00.051Z,83.58
2023-02-06T11:33:37.652Z,83.48
2023-02-06T11:36:22.533Z,83.17
2023-02-06T11:38:59.572Z,83.24
2023-02-06T11:41:31.141Z,83.19
2023-02-06T11:44:06.580Z,82.95
2023-02-06T11:46:38.849Z,82.47
2023-02-06T11:49:29.348Z,81.96
2023-02-06T11:52:03.654Z,81.22
2023-02-06T11:54:36.446Z,80.87
2023-02-06T11:57:20.203Z,80.80
2023-02-06T11:59:54.931Z,80.49
2023-02-06T12:02:29.185Z,80.72
2023-02-06T12:05:07.786Z,80.10
2023-02-06T12:07:40.941Z,80.86
2023-02-06T12:10:17.115Z,80.69
2023-02-06T12:12:51.074Z,80.63
2023-02-06T12:15:44.917Z,80.72
2023-02-06T12:18:18.486Z,80.31
2023-02-06T12:20:53.558Z,80.23
2023-02-06T12:23:28.887Z,80.03
2023-02-06T12:26:03.195Z,79.71
2023-02-06T12:28:39.821Z,79.97
2023-02-06T12:31:17.058Z,79.85
2023-02-06T12:33:54.947Z,77.99
2023-02-06T12:36:26.406Z,77.41
2023-02-06T12:39:00.713Z,78.46
2023-02-06T12:41:53.182Z,78.94
2023-02-06T12:44:30.653Z,79.05
2023-02-06T12:47:06.392Z,78.78
2023-02-06T12:49:42.570Z,78.66
2023-02-06T12:52:20.046Z,78.25
2023-02-06T12:54:56.619Z,78.05
2023-02-06T12:57:29.514Z,77.60
2023-02-06T13:00:22.054Z,77.76
2023-02-06T13:03:18.496Z,75.40
2023-02-06T13:05:52.594Z,75.32
2023-02-06T13:08:29.651Z,75.52
2023-02-06T13:11:06.027Z,75.31
2023-02-06T13:13:40.016Z,75.27
2023-02-06T13:16:11.488Z,75.72
2023-02-06T13:19:04.890Z,76.23
2023-02-06T13:21:36.833Z,76.80
2023-02-06T13:24:20.642Z,76.15
2023-02-06T13:27:15.902Z,76.02
2023-02-06T13:29:47.842Z,75.96
2023-02-06T13:32:50.239Z,75.09
2023-02-06T13:35:27.645Z,75.25
2023-02-06T13:38:37.689Z,75.69
2023-02-06T13:41:31.134Z,75.22
2023-02-06T13:44:06.736Z,75.61
2023-02-06T13:47:08.566Z,75.38
2023-02-06T13:50:09.790Z,75.84
2023-02-06T13:52:48.676Z,74.96
2023-02-06T13:55:30.130Z,74.46
2023-02-06T13:58:24.814Z,75.01
2023-02-06T14:00:57.899Z,75.37
2023-02-06T14:03:32.285Z,75.24
2023-02-06T14:06:18.162Z,74.95
2023-02-06T14:08:55.582Z,75.22
2023-02-06T14:11:41.176Z,75.48
2023-02-06T14:14:24.773Z,74.50
2023-02-06T14:17:06.023Z,74.77
2023-02-06T14:19:45.044Z,74.31
2023-02-06T14:22:26.218Z,74.05
2023-02-06T14:25:09.699Z,73.65
2023-02-06T14:27:52.523Z,74.03
2023-02-06T14:30:39.081Z,73.47
2023-02-06T14:33:25.075Z,72.68
2023-02-06T14:36:14.952Z,73.01
2023-02-06T14:39:31.253Z,72.84
2023-02-06T14:42:06.482Z,72.72
2023-02-06T14:44:37.407Z,72.88
2023-02-06T14:47:13.962Z,72.96
2023-02-06T14:49:44.824Z,73.06
2023-02-06T14:52:21.016Z,73.30
2023-02-06T14:54:51.829Z,73.75
2023-02-06T14:57:25.512Z,74.08
2023-02-06T14:59:59.668Z,73.65
2023-02-06T15:02:33.287Z,74.16
2023-02-06T15:05:05.782Z,74.20
2023-02-06T15:07:37.970Z,74.50
2023-02-06T15:10:12.232Z,74.39
2023-02-06T15:12:42.962Z,73.42
2023-02-06T15:15:22.401Z,73.18
2023-02-06T15:18:04.868Z,72.82
2023-02-06T15:20:40.132Z,72.98
2023-02-06T15:23:18.218Z,72.96
2023-02-06T15:26:05.139Z,73.18
2023-02-06T15:28:38.958Z,73.55
2023-02-06T15:31:19.882Z,73.81
2023-02-06T15:33:53.241Z,74.51
2023-02-06T15:36:33.562Z,74.51
2023-02-06T15:39:06.291Z,74.50
2023-02-06T15:41:37.318Z,74.33
2023-02-06T15:44:20.438Z,74.54
2023-02-06T15:46:52.109Z,74.46
2023-02-06T15:49:35.997Z,74.57
2023-02-06T15:52:07.535Z,75.01
2023-02-06T15:54:40.252Z,75.50
2023-02-06T15:57:28.374Z,75.53
2023-02-06T15:59:59.332Z,75.43
2023-02-06T16:02:34.929Z,75.50
2023-02-06T16:05:07.313Z,75.55
2023-02-06T16:07:38.647Z,75.68
2023-02-06T16:10:23.188Z,75.63
2023-02-06T16:12:55.048Z,75.48
2023-02-06T16:15:32.494Z,75.77
2023-02-06T16:18:20.336Z,75.61
2023-02-06T16:20:49.341Z,75.54
2023-02-06T16:23:26.101Z,75.99
2023-02-06T16:26:07.317Z,76.30
2023-02-06T16:28:47.259Z,76.23
2023-02-06T16:31:17.833Z,76.36
2023-02-06T16:33:50.797Z,76.84
2023-02-06T16:36:23.453Z,76.56
2023-02-06T16:39:03.578Z,76.72
2023-02-06T16:41:37.592Z,77.21
2023-02-06T16:44:16.238Z,77.21
2023-02-06T16:46:47.474Z,76.83
2023-02-06T16:49:20.262Z,77.20
2023-02-06T16:51:53.873Z,77.06
2023-02-06T16:54:28.090Z,76.96
2023-02-06T16:57:07.187Z,77.22
2023-02-06T16:59:38.233Z,77.09
2023-02-06T17:02:16.242Z,77.32
2023-02-06T17:04:45.564Z,77.37
2023-02-06T17:07:19.103Z,77.39
2023-02-06T17:09:51.478Z,77.59
2023-02-06T17:12:23.300Z,77.57
2023-02-06T17:14:53.680Z,77.64
2023-02-06T17:17:25.161Z,77.65
2023-02-06T17:19:56.201Z,77.59
2023-02-06T17:22:26.585Z,77.59
2023-02-06T17:24:56.979Z,77.66
2023-02-06T17:27:27.632Z,77.46
2023-02-06T17:29:58.317Z,77.21
2023-02-06T17:32:29.521Z,77.20
2023-02-06T17:35:01.610Z,77.13
2023-02-06T17:37:32.656Z,77.21
2023-02-06T17:40:03.370Z,77.12
2023-02-06T17:42:33.754Z,76.96
2023-02-06T17:45:04.372Z,77.08
2023-02-06T17:47:34.722Z,77.06
2023-02-06T17:50:05.611Z,77.00
2023-02-06T17:52:36.646Z,77.11
2023-02-06T17:55:08.147Z,77.17
2023-02-06T17:57:39.458Z,77.12
2023-02-06T18:00:13.935Z,77.19
2023-02-06T18:02:44.701Z,77.01
2023-02-06T18:05:15.168Z,77.41
2023-02-06T18:07:45.670Z,77.61
2023-02-06T18:10:16.310Z,77.77
2023-02-06T18:12:46.720Z,77.41
2023-02-06T18:15:18.706Z,77.38
2023-02-06T18:17:49.028Z,77.79
2023-02-06T18:20:19.852Z,77.90
2023-02-06T18:22:50.236Z,77.63
2023-02-06T18:25:21.524Z,77.90
2023-02-06T18:27:52.034Z,78.10
2023-02-06T18:30:22.792Z,77.85
2023-02-06T18:32:53.574Z,78.02
2023-02-06T18:35:24.210Z,78.03
2023-02-06T18:37:55.477Z,78.24
2023-02-06T18:40:25.858Z,78.36
2023-02-06T18:42:56.282Z,78.24
2023-02-06T18:45:31.126Z,78.47
2023-02-06T18:48:01.949Z,78.16
2023-02-06T18:50:32.991Z,78.23
2023-02-06T18:53:04.427Z,78.58
2023-02-06T18:55:35.546Z,78.65
2023-02-06T18:58:06.200Z,78.59
2023-02-06T19:00:38.001Z,79.03
2023-02-06T19:03:08.980Z,79.51
2023-02-06T19:05:39.392Z,79.92
2023-02-06T19:08:09.807Z,79.88
2023-02-06T19:10:42.223Z,79.92
2023-02-06T19:13:12.926Z,79.95
2023-02-06T19:15:43.326Z,80.16
2023-02-06T19:18:13.786Z,80.02
2023-02-06T19:20:45.020Z,80.04
2023-02-06T19:23:17.115Z,80.03
2023-02-06T19:25:47.502Z,80.48
2023-02-06T19:28:18.070Z,80.36
2023-02-06T19:30:48.937Z,80.00
2023-02-06T19:33:19.768Z,79.98
2023-02-06T19:35:52.193Z,79.74
2023-02-06T19:38:22.953Z,79.80
2023-02-06T19:40:53.689Z,79.81
2023-02-06T19:43:24.807Z,79.62
2023-02-06T19:45:55.784Z,79.34
2023-02-06T19:48:26.654Z,79.48
2023-02-06T19:51:02.609Z,79.78
2023-02-06T19:53:34.247Z,79.79
2023-02-06T19:56:05.702Z,79.70
2023-02-06T19:58:35.854Z,79.71
2023-02-06T20:01:12.042Z,79.71
2023-02-06T20:03:44.266Z,80.11
2023-02-06T20:06:15.800Z,80.40
2023-02-06T20:08:47.602Z,80.31
2023-02-06T20:11:24.888Z,80.24
2023-02-06T20:13:55.829Z,80.08
2023-02-06T20:16:28.114Z,80.59
2023-02-06T20:18:59.373Z,80.71
2023-02-06T20:21:31.616Z,80.51
2023-02-06T20:24:05.402Z,80.82
2023-02-06T20:26:38.110Z,80.80
2023-02-06T20:29:09.948Z,80.97
2023-02-06T20:31:40.451Z,81.02
2023-02-06T20:34:11.153Z,80.87
2023-02-06T20:36:42.805Z,81.12
2023-02-06T20:39:15.397Z,81.39
2023-02-06T20:41:46.926Z,81.53
2023-02-06T20:44:18.088Z,81.35
2023-02-06T20:46:49.078Z,81.53
2023-02-06T20:49:21.473Z,81.67
2023-02-06T20:51:52.786Z,81.71
2023-02-06T20:54:23.880Z,82.02
2023-02-06T20:56:54.631Z,81.89
2023-02-06T20:59:25.771Z,82.08
2023-02-06T21:01:56.572Z,81.84
2023-02-06T21:04:27.056Z,82.17
2023-02-06T21:06:57.756Z,81.79
2023-02-06T21:09:29.201Z,81.75
2023-02-06T21:11:59.611Z,81.84
2023-02-06T21:14:30.559Z,81.93
2023-02-06T21:17:01.458Z,81.93
2023-02-06T21:19:32.119Z,81.94
2023-02-06T21:22:03.202Z,81.95
2023-02-06T21:24:33.534Z,82.19
2023-02-06T21:27:04.185Z,81.90
2023-02-06T21:29:34.665Z,82.14
2023-02-06T21:32:13.612Z,82.33
2023-02-06T21:34:44.826Z,82.29
2023-02-06T21:37:15.672Z,82.47
2023-02-06T21:39:46.643Z,82.48
2023-02-06T21:42:19.168Z,82.38
2023-02-06T21:44:49.805Z,82.55
2023-02-06T21:47:20.488Z,82.52
2023-02-06T21:49:51.389Z,82.53
2023-02-06T21:52:21.784Z,82.75
2023-02-06T21:54:52.481Z,82.74
2023-02-06T21:57:23.012Z,82.74
2023-02-06T21:59:53.996Z,82.32
2023-02-06T22:02:24.378Z,82.62
2023-02-06T22:04:56.411Z,82.83
2023-02-06T22:07:27.305Z,83.05
2023-02-06T22:09:58.001Z,83.30
2023-02-06T22:12:28.753Z,83.32
2023-02-06T22:14:59.611Z,83.25
2023-02-06T22:17:31.704Z,83.57
2023-02-06T22:20:02.155Z,83.35
2023-02-06T22:22:33.177Z,83.37
2023-02-06T22:25:03.674Z,83.43
2023-02-06T22:27:36.012Z,83.12
2023-02-06T22:30:09.403Z,83.11
2023-02-06T22:32:41.341Z,83.37
2023-02-06T22:35:11.904Z,83.15
2023-02-06T22:37:44.497Z,83.28
2023-02-06T22:40:15.774Z,83.03
2023-02-06T22:42:47.206Z,82.86
2023-02-06T22:45:17.622Z,82.61
2023-02-06T22:47:48.296Z,82.59
2023-02-06T22:50:18.925Z,82.65
2023-02-06T22:53:06.808Z,82.34
2023-02-06T22:55:54.255Z,82.45
2023-02-06T22:58:24.701Z,82.63
2023-02-06T23:01:01.880Z,82.56
2023-02-06T23:03:32.657Z,82.69
2023-02-06T23:06:05.001Z,82.91
2023-02-06T23:08:36.808Z,82.85
2023-02-06T23:11:08.382Z,82.63
2023-02-06T23:13:39.470Z,82.91
2023-02-06T23:16:10.846Z,83.12
2023-02-06T23:18:41.968Z,82.78
2023-02-06T23:21:14.638Z,82.90
2023-02-06T23:23:45.179Z,82.94
2023-02-06T23:26:18.033Z,83.22
2023-02-06T23:28:48.762Z,83.13
2023-02-06T23:31:20.160Z,82.94
2023-02-06T23:33:51.479Z,82.67
2023-02-06T23:36:24.849Z,82.29
2023-02-06T23:38:56.074Z,82.24
2023-02-06T23:41:28.701Z,82.01
2023-02-06T23:44:01.037Z,81.98
2023-02-06T23:46:33.660Z,82.11
2023-02-06T23:49:04.617Z,82.04
2023-02-06T23:51:36.479Z,82.03
2023-02-06T23:54:08.647Z,81.94
2023-02-06T23:56:39.720Z,82.20
2023-02-06T23:59:11.246Z,82.21
